Airfield :
LOGIN :

Register | Disclaimer

   EN    FR    IT 

 










Legend :    VFR   Marginal VFR   IFR   Intensive IFR   Very Intensive IFR
Visi :
Ceiling :
>= 8 km
>= 3000ft
5 to 8 km
1000 to 3000 ft
1500m to 5 km
500 to 1000 ft
800 to 1500m
200 to 500 ft
< 800m
< 200 ft
Symbols :   Thunderstorms  Fog  Heavy snow  Heavy precipitations  Wind > 20 kt
SIGMETs :     Misc.  Thunderstorms  Icing  Turbulence  Mountain Waves  Volcanic Ashes






- Airport Elevation : 1682 ft
- IATA code : VIT


LEVT - Vitoria Gasteiz

CURRENT METAR :
  • 260100Z 21002KT 3900 -RA FEW011 OVC029 06/06 Q1018

EXPIRED METARs :
  • 260030Z 15001KT 3200 -RA FEW011 SCT023 OVC028 06/06 Q1018
  • 260000Z 00000KT 3000 -RA FEW011 OVC026 06/06 Q1018
  • 252330Z 13002KT 3300 -RA FEW011 OVC023 06/06 Q1018
  • 252300Z 00000KT 5000 -RA FEW011 OVC020 07/06 Q1018
  • 252230Z VRB01KT 5000 -RA BKN011 OVC016 07/06 Q1018

TAF TAF LEVT
Valid from the 26 at 00:00 until the 27 at 00:00 UTC


252300Z 2600/2624 VRB04KT 9999 SCT010 BKN025 TX10/2614Z TN01/2608Z
TEMPO 2600/2603 3000 -RA BKN010
TEMPO 2612/2624 23010KT



MET'MAP, your aeronautical weather chart ! - Copyright ORBIFLY December 2007 - Disclaimer

ORBIFLY MET'MAP TEAM :

Programming & Development : Alexandra Zaïnal
Concept & original design : Baudouin d'Aumeries
Assistance for programming : Marc-Olivier Méhu
Technical & hardware support : Manuel Goepfert

Contact : metmap@orbifly.com




SOURCES & CREDITS :

   NOAA